Marathon Airport Marathon CA
ICAO: CYSP
IATA: YSP
Category: Medium
Scheduled Services: No

Elevation: 1035 ft
TransAlt. 3400 ft.

Airport Communications:
WINNIPEG CNTR:134.075
WINNIPEG RDO:123.55
ATF/UNICOM:122.8

CYSP Zoom In..

Runways:

(A) RW 16 length 3933 ft width 100 ft
---- / hdg 159

(B) RW 34 length 3933 ft width 100 ft
---- / hdg 339

Location; CYSP
Day. 23 / Time. 21.00 Zulu
* Altimeter: 30.12
* Temperature: 14° c. 57.2°f.
* Wind from: 240° Speed 06 kn.
Dewpoint: 04° c.
Visibility: 15 Statute Miles.
Clouds: Few 22000 ft.
Clouds: Broken 26000 ft.

CYSP 232100Z 24006KT 190V300 15SM FEW220 BKN260 14/04 A3012 RMK CI2CI3 LAST STFD OBS/NEXT 231200UTC SLP211


Wind From 240°
Speed 06 kn.

 
 
jpsmedia.com for Web Design SOUNDCLOUD worldairports.se 2018   terms of use